Time;durP1;ratioP1;P1;durP2;ratioP2;P2;SDS_P1;SDS_P2;PMS_P1;PMS_P2;Temp;Humidity;BMP_temperature;BMP_pressure;BME280_temperature;BME280_humidity;BME280_pressure;Samples;Min_cycle;Max_cycle;Signal;HPM_P1;HPM_P2
2022/10/09 00:08:06;;;;;;;9.35;1.42;;;;;;;;;;20587551;28;20058;-63
2022/10/09 00:18:09;;;;;;;6.97;1.25;;;;;;;;;;20587090;28;20054;-67
2022/10/09 00:28:11;;;;;;;6.18;1.55;;;;;;;;;;20586602;28;20054;-66
2022/10/09 00:38:13;;;;;;;6.43;1.58;;;;;;;;;;20586007;28;20141;-67
2022/10/09 00:48:16;;;;;;;4.68;1.10;;;;;;;;;;20585753;28;20122;-61
2022/10/09 00:58:18;;;;;;;8.57;1.63;;;;;;;;;;20590818;28;20100;-62
2022/10/09 01:08:26;;;;;;;4.53;1.25;;;;;;;;;;20601655;28;20051;-67
2022/10/09 01:18:37;;;;;;;5.63;1.48;;;;;;;;;;20600307;28;20725;-62
2022/10/09 01:28:42;;;;;;;3.58;1.02;;;;;;;;;;20600083;28;20412;-61
2022/10/09 01:38:57;;;;;;;8.25;1.35;;;;;;;;;;20598154;28;20058;-63
2022/10/09 01:49:06;;;;;;;6.22;1.48;;;;;;;;;;20597496;28;20133;-60
2022/10/09 01:59:24;;;;;;;6.45;1.55;;;;;;;;;;20597114;28;20092;-60
2022/10/09 02:09:39;;;;;;;6.93;1.40;;;;;;;;;;20595608;28;20484;-61
2022/10/09 02:19:46;;;;;;;;;;;;;;;;;;20595796;28;20105;-60
2022/10/09 02:29:54;;;;;;;6.40;2.40;;;;;;;;;;20594913;28;20020;-60
2022/10/09 02:40:01;;;;;;;11.40;1.67;;;;;;;;;;20594309;28;20134;-61
2022/10/09 02:50:06;;;;;;;5.15;1.25;;;;;;;;;;20593491;28;20065;-59
2022/10/09 03:00:14;;;;;;;8.07;1.83;;;;;;;;;;20595541;28;20444;-63
2022/10/09 03:10:19;;;;;;;6.03;1.48;;;;;;;;;;20591821;28;20065;-61
2022/10/09 03:20:26;;;;;;;5.53;1.50;;;;;;;;;;20591168;28;20054;-61
2022/10/09 03:30:30;;;;;;;7.60;1.27;;;;;;;;;;20591064;28;20055;-60
2022/10/09 03:40:34;;;;;;;3.42;1.20;;;;;;;;;;20589687;28;20477;-65
2022/10/09 03:50:37;;;;;;;8.50;1.45;;;;;;;;;;20603134;28;20059;-67
2022/10/09 04:00:40;;;;;;;8.80;1.75;;;;;;;;;;20588910;28;20052;-64
2022/10/09 04:10:43;;;;;;;6.32;1.52;;;;;;;;;;20588856;28;20401;-61
2022/10/09 04:20:52;;;;;;;3.95;1.13;;;;;;;;;;20587331;28;20074;-60
2022/10/09 04:30:56;;;;;;;6.97;1.27;;;;;;;;;;20588461;28;20051;-60
2022/10/09 04:41:03;;;;;;;10.50;1.88;;;;;;;;;;20604157;28;20047;-63
2022/10/09 04:51:11;;;;;;;7.10;1.45;;;;;;;;;;20602162;28;20055;-60
2022/10/09 05:01:14;;;;;;;6.60;1.40;;;;;;;;;;20602639;28;20069;-62
2022/10/09 05:11:21;;;;;;;6.38;1.63;;;;;;;;;;20615407;28;20059;-61
2022/10/09 05:21:24;;;;;;;6.72;1.98;;;;;;;;;;20600115;28;20062;-61
2022/10/09 05:31:27;;;;;;;8.98;1.40;;;;;;;;;;20599476;28;20447;-62
2022/10/09 05:41:29;;;;;;;5.70;1.75;;;;;;;;;;20612969;28;20101;-61
2022/10/09 05:51:36;;;;;;;5.88;1.85;;;;;;;;;;20598332;28;20051;-61
2022/10/09 06:01:39;;;;;;;7.18;1.67;;;;;;;;;;20597986;28;20484;-62
2022/10/09 06:11:42;;;;;;;4.95;1.75;;;;;;;;;;20597102;28;20132;-63
2022/10/09 06:21:45;;;;;;;5.53;1.52;;;;;;;;;;20595887;28;20046;-66
2022/10/09 06:31:47;;;;;;;7.13;1.50;;;;;;;;;;20594703;28;20097;-65
2022/10/09 06:41:50;;;;;;;19.35;2.17;;;;;;;;;;20593591;28;20061;-63
2022/10/09 06:51:53;;;;;;;10.68;1.88;;;;;;;;;;20593996;28;20065;-65
2022/10/09 07:01:56;;;;;;;5.70;1.58;;;;;;;;;;20591732;28;20058;-62
2022/10/09 07:11:58;;;;;;;9.95;1.98;;;;;;;;;;20592427;28;20057;-61
2022/10/09 07:22:00;;;;;;;9.35;2.28;;;;;;;;;;20590515;28;20055;-65
2022/10/09 07:32:03;;;;;;;12.98;3.30;;;;;;;;;;20590281;28;20062;-66
2022/10/09 07:42:06;;;;;;;7.15;2.25;;;;;;;;;;20588829;28;20063;-67
2022/10/09 07:52:08;;;;;;;8.55;2.10;;;;;;;;;;20589212;28;20047;-61
2022/10/09 08:02:10;;;;;;;11.75;1.98;;;;;;;;;;20587089;28;20073;-61
2022/10/09 08:12:12;;;;;;;7.93;2.35;;;;;;;;;;20602157;28;20054;-68
2022/10/09 08:22:14;;;;;;;7.90;1.98;;;;;;;;;;20587221;28;20403;-67
2022/10/09 08:32:16;;;;;;;11.25;2.40;;;;;;;;;;20601281;28;20054;-62
2022/10/09 08:42:31;;;;;;;7.47;1.67;;;;;;;;;;20585633;28;20137;-60
2022/10/09 08:52:43;;;;;;;8.50;2.10;;;;;;;;;;20586601;28;20392;-61
2022/10/09 09:03:03;;;;;;;11.20;2.15;;;;;;;;;;20585557;28;20074;-63
2022/10/09 09:13:22;;;;;;;9.48;1.70;;;;;;;;;;20585005;28;20403;-61
2022/10/09 09:23:33;;;;;;;5.03;1.88;;;;;;;;;;20596948;28;20049;-62
2022/10/09 09:33:42;;;;;;;9.73;2.22;;;;;;;;;;20599479;28;20062;-63
2022/10/09 09:43:45;;;;;;;8.07;1.98;;;;;;;;;;20598594;28;20066;-61
2022/10/09 09:53:53;;;;;;;10.38;2.00;;;;;;;;;;20597431;28;20141;-61
2022/10/09 10:03:57;;;;;;;8.23;2.00;;;;;;;;;;20611434;28;20046;-62
2022/10/09 10:14:05;;;;;;;7.40;2.03;;;;;;;;;;20596316;28;20137;-61
2022/10/09 10:24:11;;;;;;;9.17;1.93;;;;;;;;;;20596316;28;20055;-60
2022/10/09 10:34:16;;;;;;;7.68;1.80;;;;;;;;;;20595006;28;20452;-60
2022/10/09 10:44:22;;;;;;;4.90;2.00;;;;;;;;;;20593329;28;20089;-61
2022/10/09 10:54:24;;;;;;;7.40;2.05;;;;;;;;;;20591888;28;20085;-60
2022/10/09 11:04:38;;;;;;;10.57;2.28;;;;;;;;;;20591945;28;20050;-60
2022/10/09 11:14:46;;;;;;;9.88;2.05;;;;;;;;;;20590381;28;20077;-64
2022/10/09 11:25:14;;;;;;;14.98;3.92;;;;;;;;;;20589727;28;20050;-65
2022/10/09 11:35:21;;;;;;;8.13;2.22;;;;;;;;;;20580589;28;20093;-62
2022/10/09 11:45:29;;;;;;;8.40;2.50;;;;;;;;;;20579272;28;20050;-61
2022/10/09 11:55:33;;;;;;;12.52;2.33;;;;;;;;;;20579035;28;20062;-65
2022/10/09 12:05:38;;;;;;;14.18;2.47;;;;;;;;;;20581276;28;20047;-61
2022/10/09 12:15:49;;;;;;;12.95;2.40;;;;;;;;;;20587980;28;20055;-64
2022/10/09 12:25:53;;;;;;;14.95;2.65;;;;;;;;;;20587109;28;20050;-60
2022/10/09 12:36:12;;;;;;;14.35;2.08;;;;;;;;;;20586809;28;20509;-60
2022/10/09 12:46:14;;;;;;;7.35;2.63;;;;;;;;;;20587608;28;20051;-62
2022/10/09 12:56:22;;;;;;;10.23;2.28;;;;;;;;;;20595420;28;20054;-60
2022/10/09 13:06:32;;;;;;;11.32;2.08;;;;;;;;;;20602382;28;20047;-61
2022/10/09 13:16:39;;;;;;;7.75;1.73;;;;;;;;;;20601087;28;20456;-60
2022/10/09 13:26:43;;;;;;;9.63;1.90;;;;;;;;;;20599767;28;20047;-61
2022/10/09 13:36:46;;;;;;;12.27;2.58;;;;;;;;;;20599729;28;20093;-62
2022/10/09 13:46:49;;;;;;;10.98;2.03;;;;;;;;;;20598209;28;20054;-62
2022/10/09 13:56:52;;;;;;;8.10;2.00;;;;;;;;;;20597389;28;20046;-62
2022/10/09 14:06:55;;;;;;;7.43;1.70;;;;;;;;;;20596608;28;20407;-61
2022/10/09 14:16:57;;;;;;;9.25;2.13;;;;;;;;;;20595784;28;20137;-61
2022/10/09 14:27:01;;;;;;;6.82;2.40;;;;;;;;;;20596736;28;20509;-62
2022/10/09 14:37:03;;;;;;;8.77;1.73;;;;;;;;;;20609666;28;20055;-61
2022/10/09 14:47:06;;;;;;;17.00;3.45;;;;;;;;;;20593512;28;20058;-61
2022/10/09 14:57:09;;;;;;;11.90;2.25;;;;;;;;;;20592772;28;20070;-61
2022/10/09 15:07:11;;;;;;;11.00;1.95;;;;;;;;;;20592030;28;20046;-61
2022/10/09 15:17:14;;;;;;;10.88;3.50;;;;;;;;;;20591305;28;20057;-61
2022/10/09 15:27:18;;;;;;;7.25;1.70;;;;;;;;;;20590596;28;20046;-61
2022/10/09 15:37:20;;;;;;;10.85;2.50;;;;;;;;;;20589726;28;20492;-61
2022/10/09 15:47:23;;;;;;;8.85;2.25;;;;;;;;;;20588996;28;20050;-61
2022/10/09 15:57:25;;;;;;;7.90;1.70;;;;;;;;;;20588873;28;20058;-62
2022/10/09 16:07:27;;;;;;;10.43;2.85;;;;;;;;;;20589967;28;20047;-60
2022/10/09 16:17:29;;;;;;;15.93;2.83;;;;;;;;;;20587230;28;20154;-62
2022/10/09 16:27:31;;;;;;;12.43;2.72;;;;;;;;;;20585319;28;20058;-61
2022/10/09 16:37:33;;;;;;;11.75;1.80;;;;;;;;;;20587011;28;20141;-62
2022/10/09 16:47:35;;;;;;;7.72;2.17;;;;;;;;;;20586493;28;20107;-62
2022/10/09 16:57:37;;;;;;;9.88;2.42;;;;;;;;;;20585383;28;20093;-62
2022/10/09 17:07:39;;;;;;;13.15;3.42;;;;;;;;;;20585441;28;20051;-61
2022/10/09 17:17:41;;;;;;;16.27;4.15;;;;;;;;;;20584920;28;20054;-60
2022/10/09 17:27:43;;;;;;;12.98;2.25;;;;;;;;;;20585964;28;20436;-60
2022/10/09 17:37:46;;;;;;;16.98;6.05;;;;;;;;;;20585629;28;20046;-60
2022/10/09 17:47:48;;;;;;;16.30;3.53;;;;;;;;;;20598509;28;20139;-61
2022/10/09 17:57:50;;;;;;;19.20;6.35;;;;;;;;;;20597685;28;20114;-60
2022/10/09 18:07:52;;;;;;;10.63;4.18;;;;;;;;;;20596726;28;20126;-68
2022/10/09 18:17:54;;;;;;;27.42;7.85;;;;;;;;;;20596531;28;20061;-69
2022/10/09 18:27:56;;;;;;;21.42;8.13;;;;;;;;;;20595271;28;20042;-66
2022/10/09 18:37:58;;;;;;;19.98;5.93;;;;;;;;;;20595303;28;20487;-64
2022/10/09 18:48:01;;;;;;;19.95;5.95;;;;;;;;;;20595475;28;20063;-76
2022/10/09 18:58:04;;;;;;;19.25;6.35;;;;;;;;;;20594064;28;20518;-62
2022/10/09 19:08:06;;;;;;;35.45;14.27;;;;;;;;;;20608012;28;20050;-77
2022/10/09 19:18:08;;;;;;;18.63;9.35;;;;;;;;;;20593824;28;20448;-80
2022/10/09 19:28:10;;;;;;;20.75;7.63;;;;;;;;;;20593146;28;20047;-68
2022/10/09 19:38:12;;;;;;;22.17;8.82;;;;;;;;;;20596005;28;20094;-68
2022/10/09 19:48:15;;;;;;;24.15;10.02;;;;;;;;;;20601350;28;20054;-67
2022/10/09 19:58:17;;;;;;;34.03;14.63;;;;;;;;;;20591654;28;20059;-63
2022/10/09 20:08:19;;;;;;;28.77;10.40;;;;;;;;;;20591342;28;20051;-74
2022/10/09 20:18:21;;;;;;;22.63;9.13;;;;;;;;;;20589919;28;20050;-63
2022/10/09 20:28:23;;;;;;;21.58;8.07;;;;;;;;;;20589798;28;20474;-67
2022/10/09 20:38:24;;;;;;;16.65;6.97;;;;;;;;;;20598607;28;20050;-75
2022/10/09 20:48:26;;;;;;;14.57;4.57;;;;;;;;;;20603142;28;20058;-73
2022/10/09 20:58:28;;;;;;;17.80;4.60;;;;;;;;;;20595666;28;20054;-62
2022/10/09 21:08:30;;;;;;;16.20;3.83;;;;;;;;;;20588645;28;20385;-76
2022/10/09 21:18:32;;;;;;;17.90;3.47;;;;;;;;;;20602856;28;20046;-76
2022/10/09 21:28:35;;;;;;;13.35;3.10;;;;;;;;;;20617057;28;20097;-74
2022/10/09 21:38:37;;;;;;;8.70;2.78;;;;;;;;;;20601539;28;20058;-70
2022/10/09 21:48:39;;;;;;;10.88;3.13;;;;;;;;;;20600136;28;20102;-80
2022/10/09 21:58:41;;;;;;;14.25;4.47;;;;;;;;;;20601252;28;20065;-79
2022/10/09 22:08:43;;;;;;;16.13;6.38;;;;;;;;;;20616999;28;20054;-78
2022/10/09 22:18:45;;;;;;;12.82;3.38;;;;;;;;;;20598879;28;20051;-80
2022/10/09 22:28:47;;;;;;;16.23;4.53;;;;;;;;;;20598448;28;20098;-62
2022/10/09 22:38:52;;;;;;;14.88;5.43;;;;;;;;;;20596665;28;20050;-71
2022/10/09 22:48:54;;;;;;;11.32;3.22;;;;;;;;;;20611690;28;20073;-67
2022/10/09 22:58:57;;;;;;;11.80;3.05;;;;;;;;;;20595652;28;20121;-73
2022/10/09 23:08:59;;;;;;;14.68;2.95;;;;;;;;;;20594852;28;20042;-64
2022/10/09 23:19:01;;;;;;;14.18;2.95;;;;;;;;;;20594301;28;20503;-66
2022/10/09 23:29:05;;;;;;;13.63;2.47;;;;;;;;;;20597303;28;20050;-63
2022/10/09 23:39:07;;;;;;;19.02;3.20;;;;;;;;;;20610700;28;20054;-66
2022/10/09 23:49:09;;;;;;;13.85;2.70;;;;;;;;;;20597433;28;20058;-66
2022/10/09 23:59:11;;;;;;;15.63;3.90;;;;;;;;;;20591270;28;20059;-64
